sensor_id;sensor_type;location;lat;lon;timestamp;P1;durP1;ratioP1;P2;durP2;ratioP2
44366;SDS011;30086;57.660;12.000;2024-02-26T00:00:54;3.10;;;1.80;;
44366;SDS011;30086;57.660;12.000;2024-02-26T00:03:20;2.45;;;1.95;;
44366;SDS011;30086;57.660;12.000;2024-02-26T00:05:47;4.07;;;1.92;;
44366;SDS011;30086;57.660;12.000;2024-02-26T00:08:13;2.53;;;1.90;;
44366;SDS011;30086;57.660;12.000;2024-02-26T00:10:39;3.97;;;1.90;;
44366;SDS011;30086;57.660;12.000;2024-02-26T00:13:05;3.50;;;2.10;;
44366;SDS011;30086;57.660;12.000;2024-02-26T00:15:31;4.63;;;1.98;;
44366;SDS011;30086;57.660;12.000;2024-02-26T00:18:00;2.38;;;1.90;;
44366;SDS011;30086;57.660;12.000;2024-02-26T00:20:26;2.35;;;1.80;;
44366;SDS011;30086;57.660;12.000;2024-02-26T00:22:52;4.10;;;1.90;;
44366;SDS011;30086;57.660;12.000;2024-02-26T00:25:18;3.28;;;2.17;;
44366;SDS011;30086;57.660;12.000;2024-02-26T00:27:44;2.13;;;1.90;;
44366;SDS011;30086;57.660;12.000;2024-02-26T00:30:10;6.43;;;2.17;;
44366;SDS011;30086;57.660;12.000;2024-02-26T00:32:37;3.50;;;2.10;;
44366;SDS011;30086;57.660;12.000;2024-02-26T00:35:03;3.17;;;1.90;;
44366;SDS011;30086;57.660;12.000;2024-02-26T00:37:29;3.70;;;2.38;;
44366;SDS011;30086;57.660;12.000;2024-02-26T00:39:55;2.92;;;1.88;;
44366;SDS011;30086;57.660;12.000;2024-02-26T00:42:21;4.78;;;2.08;;
44366;SDS011;30086;57.660;12.000;2024-02-26T00:44:48;3.60;;;1.90;;
44366;SDS011;30086;57.660;12.000;2024-02-26T00:47:14;3.97;;;1.98;;
44366;SDS011;30086;57.660;12.000;2024-02-26T00:49:40;3.83;;;2.03;;
44366;SDS011;30086;57.660;12.000;2024-02-26T00:52:06;3.47;;;2.35;;
44366;SDS011;30086;57.660;12.000;2024-02-26T00:54:32;4.60;;;2.10;;
44366;SDS011;30086;57.660;12.000;2024-02-26T00:56:58;2.67;;;1.95;;
44366;SDS011;30086;57.660;12.000;2024-02-26T00:59:24;3.25;;;2.20;;
44366;SDS011;30086;57.660;12.000;2024-02-26T01:01:50;3.03;;;2.15;;
44366;SDS011;30086;57.660;12.000;2024-02-26T01:04:16;3.97;;;2.28;;
44366;SDS011;30086;57.660;12.000;2024-02-26T01:06:42;4.30;;;2.30;;
44366;SDS011;30086;57.660;12.000;2024-02-26T01:09:08;4.55;;;2.78;;
44366;SDS011;30086;57.660;12.000;2024-02-26T01:11:34;4.40;;;2.50;;
44366;SDS011;30086;57.660;12.000;2024-02-26T01:14:00;4.40;;;3.03;;
44366;SDS011;30086;57.660;12.000;2024-02-26T01:16:26;4.10;;;2.75;;
44366;SDS011;30086;57.660;12.000;2024-02-26T01:18:54;3.90;;;2.70;;
44366;SDS011;30086;57.660;12.000;2024-02-26T01:21:20;6.72;;;2.78;;
44366;SDS011;30086;57.660;12.000;2024-02-26T01:23:46;7.03;;;2.95;;
44366;SDS011;30086;57.660;12.000;2024-02-26T01:26:12;3.65;;;2.63;;
44366;SDS011;30086;57.660;12.000;2024-02-26T01:28:38;5.93;;;3.00;;
44366;SDS011;30086;57.660;12.000;2024-02-26T01:31:04;4.03;;;3.15;;
44366;SDS011;30086;57.660;12.000;2024-02-26T01:33:32;4.78;;;2.90;;
44366;SDS011;30086;57.660;12.000;2024-02-26T01:35:58;9.07;;;3.25;;
44366;SDS011;30086;57.660;12.000;2024-02-26T01:38:25;5.55;;;3.00;;
44366;SDS011;30086;57.660;12.000;2024-02-26T01:40:52;4.25;;;2.90;;
44366;SDS011;30086;57.660;12.000;2024-02-26T01:43:18;5.07;;;2.72;;
44366;SDS011;30086;57.660;12.000;2024-02-26T01:45:44;4.30;;;2.83;;
44366;SDS011;30086;57.660;12.000;2024-02-26T01:48:10;4.32;;;3.17;;
44366;SDS011;30086;57.660;12.000;2024-02-26T01:50:36;4.03;;;2.78;;
44366;SDS011;30086;57.660;12.000;2024-02-26T01:53:03;4.55;;;3.05;;
44366;SDS011;30086;57.660;12.000;2024-02-26T01:55:29;8.43;;;3.20;;
44366;SDS011;30086;57.660;12.000;2024-02-26T01:57:55;7.78;;;3.50;;
44366;SDS011;30086;57.660;12.000;2024-02-26T02:00:21;6.95;;;3.53;;
44366;SDS011;30086;57.660;12.000;2024-02-26T02:02:48;7.72;;;3.63;;
44366;SDS011;30086;57.660;12.000;2024-02-26T02:05:15;6.30;;;3.40;;
44366;SDS011;30086;57.660;12.000;2024-02-26T02:07:45;7.40;;;3.67;;
44366;SDS011;30086;57.660;12.000;2024-02-26T02:10:13;7.95;;;3.33;;
44366;SDS011;30086;57.660;12.000;2024-02-26T02:12:39;6.80;;;3.95;;
44366;SDS011;30086;57.660;12.000;2024-02-26T02:15:05;5.13;;;3.25;;
44366;SDS011;30086;57.660;12.000;2024-02-26T02:17:32;7.35;;;3.72;;
44366;SDS011;30086;57.660;12.000;2024-02-26T02:19:58;6.82;;;3.55;;
44366;SDS011;30086;57.660;12.000;2024-02-26T02:22:24;6.22;;;3.67;;
44366;SDS011;30086;57.660;12.000;2024-02-26T02:24:51;4.50;;;3.17;;
44366;SDS011;30086;57.660;12.000;2024-02-26T02:27:19;5.20;;;3.80;;
44366;SDS011;30086;57.660;12.000;2024-02-26T02:29:45;6.45;;;3.42;;
44366;SDS011;30086;57.660;12.000;2024-02-26T02:32:12;6.18;;;4.13;;
44366;SDS011;30086;57.660;12.000;2024-02-26T02:34:38;10.77;;;4.10;;
44366;SDS011;30086;57.660;12.000;2024-02-26T02:37:04;6.63;;;3.50;;
44366;SDS011;30086;57.660;12.000;2024-02-26T02:39:30;9.35;;;4.15;;
44366;SDS011;30086;57.660;12.000;2024-02-26T02:41:56;11.27;;;4.20;;
44366;SDS011;30086;57.660;12.000;2024-02-26T02:44:22;9.25;;;3.72;;
44366;SDS011;30086;57.660;12.000;2024-02-26T02:46:49;9.10;;;4.43;;
44366;SDS011;30086;57.660;12.000;2024-02-26T02:49:17;11.77;;;4.00;;
44366;SDS011;30086;57.660;12.000;2024-02-26T02:51:43;7.28;;;4.15;;
44366;SDS011;30086;57.660;12.000;2024-02-26T02:54:09;6.43;;;3.83;;
44366;SDS011;30086;57.660;12.000;2024-02-26T02:56:35;6.95;;;4.10;;
44366;SDS011;30086;57.660;12.000;2024-02-26T02:59:01;7.90;;;3.78;;
44366;SDS011;30086;57.660;12.000;2024-02-26T03:01:27;7.00;;;3.95;;
44366;SDS011;30086;57.660;12.000;2024-02-26T03:03:53;9.23;;;3.95;;
44366;SDS011;30086;57.660;12.000;2024-02-26T03:06:19;9.35;;;4.28;;
44366;SDS011;30086;57.660;12.000;2024-02-26T03:08:46;5.43;;;3.75;;
44366;SDS011;30086;57.660;12.000;2024-02-26T03:11:14;9.00;;;4.43;;
44366;SDS011;30086;57.660;12.000;2024-02-26T03:13:40;7.07;;;3.88;;
44366;SDS011;30086;57.660;12.000;2024-02-26T03:16:06;7.20;;;4.13;;
44366;SDS011;30086;57.660;12.000;2024-02-26T03:18:33;9.63;;;4.53;;
44366;SDS011;30086;57.660;12.000;2024-02-26T03:20:59;6.45;;;4.20;;
44366;SDS011;30086;57.660;12.000;2024-02-26T03:23:25;8.70;;;4.50;;
44366;SDS011;30086;57.660;12.000;2024-02-26T03:25:51;8.55;;;4.30;;
44366;SDS011;30086;57.660;12.000;2024-02-26T03:28:17;8.32;;;4.68;;
44366;SDS011;30086;57.660;12.000;2024-02-26T03:30:43;8.38;;;4.72;;
44366;SDS011;30086;57.660;12.000;2024-02-26T03:33:09;13.93;;;5.25;;
44366;SDS011;30086;57.660;12.000;2024-02-26T03:35:35;6.82;;;4.03;;
44366;SDS011;30086;57.660;12.000;2024-02-26T03:38:01;7.82;;;4.70;;
44366;SDS011;30086;57.660;12.000;2024-02-26T03:40:27;8.20;;;4.25;;
44366;SDS011;30086;57.660;12.000;2024-02-26T03:42:53;6.93;;;3.80;;
44366;SDS011;30086;57.660;12.000;2024-02-26T03:45:22;8.05;;;4.55;;
44366;SDS011;30086;57.660;12.000;2024-02-26T03:47:48;9.23;;;4.40;;
44366;SDS011;30086;57.660;12.000;2024-02-26T03:50:14;7.25;;;4.07;;
44366;SDS011;30086;57.660;12.000;2024-02-26T03:52:41;5.57;;;3.90;;
44366;SDS011;30086;57.660;12.000;2024-02-26T03:55:07;7.72;;;4.45;;
44366;SDS011;30086;57.660;12.000;2024-02-26T03:57:35;6.88;;;3.90;;
44366;SDS011;30086;57.660;12.000;2024-02-26T04:00:01;11.23;;;4.38;;
44366;SDS011;30086;57.660;12.000;2024-02-26T04:02:28;8.55;;;4.07;;
44366;SDS011;30086;57.660;12.000;2024-02-26T04:04:54;12.15;;;4.25;;
44366;SDS011;30086;57.660;12.000;2024-02-26T04:07:20;8.18;;;3.85;;
44366;SDS011;30086;57.660;12.000;2024-02-26T04:09:46;7.53;;;3.70;;
44366;SDS011;30086;57.660;12.000;2024-02-26T04:12:12;8.95;;;4.30;;
44366;SDS011;30086;57.660;12.000;2024-02-26T04:14:39;9.25;;;4.38;;
44366;SDS011;30086;57.660;12.000;2024-02-26T04:17:05;6.60;;;3.90;;
44366;SDS011;30086;57.660;12.000;2024-02-26T04:19:31;6.85;;;4.10;;
44366;SDS011;30086;57.660;12.000;2024-02-26T04:21:57;6.80;;;4.13;;
44366;SDS011;30086;57.660;12.000;2024-02-26T04:24:23;10.48;;;4.57;;
44366;SDS011;30086;57.660;12.000;2024-02-26T04:26:49;8.63;;;4.30;;
44366;SDS011;30086;57.660;12.000;2024-02-26T04:29:15;7.53;;;3.50;;
44366;SDS011;30086;57.660;12.000;2024-02-26T04:31:44;8.02;;;4.35;;
44366;SDS011;30086;57.660;12.000;2024-02-26T04:34:11;5.38;;;4.03;;
44366;SDS011;30086;57.660;12.000;2024-02-26T04:36:38;10.55;;;4.63;;
44366;SDS011;30086;57.660;12.000;2024-02-26T04:39:04;8.68;;;4.38;;
44366;SDS011;30086;57.660;12.000;2024-02-26T04:41:30;6.35;;;4.18;;
44366;SDS011;30086;57.660;12.000;2024-02-26T04:43:56;7.00;;;4.38;;
44366;SDS011;30086;57.660;12.000;2024-02-26T04:46:22;8.32;;;3.70;;
44366;SDS011;30086;57.660;12.000;2024-02-26T04:48:48;6.53;;;3.97;;
44366;SDS011;30086;57.660;12.000;2024-02-26T04:51:14;8.50;;;4.25;;
44366;SDS011;30086;57.660;12.000;2024-02-26T04:53:40;10.60;;;4.57;;
44366;SDS011;30086;57.660;12.000;2024-02-26T04:56:06;7.10;;;4.30;;
44366;SDS011;30086;57.660;12.000;2024-02-26T04:58:32;11.15;;;4.43;;
44366;SDS011;30086;57.660;12.000;2024-02-26T05:00:59;7.60;;;4.53;;
44366;SDS011;30086;57.660;12.000;2024-02-26T05:03:25;8.35;;;4.20;;
44366;SDS011;30086;57.660;12.000;2024-02-26T05:05:51;8.45;;;4.03;;
44366;SDS011;30086;57.660;12.000;2024-02-26T05:08:17;10.18;;;4.30;;
44366;SDS011;30086;57.660;12.000;2024-02-26T05:10:45;5.47;;;4.03;;
44366;SDS011;30086;57.660;12.000;2024-02-26T05:13:11;7.63;;;4.15;;
44366;SDS011;30086;57.660;12.000;2024-02-26T05:15:37;7.57;;;4.20;;
44366;SDS011;30086;57.660;12.000;2024-02-26T05:18:03;8.98;;;4.50;;
44366;SDS011;30086;57.660;12.000;2024-02-26T05:20:29;8.05;;;4.38;;
44366;SDS011;30086;57.660;12.000;2024-02-26T05:22:56;8.82;;;5.07;;
44366;SDS011;30086;57.660;12.000;2024-02-26T05:25:23;8.02;;;4.60;;
44366;SDS011;30086;57.660;12.000;2024-02-26T05:27:50;8.55;;;4.47;;
44366;SDS011;30086;57.660;12.000;2024-02-26T05:30:16;7.65;;;4.53;;
44366;SDS011;30086;57.660;12.000;2024-02-26T05:32:42;7.20;;;4.28;;
44366;SDS011;30086;57.660;12.000;2024-02-26T05:35:08;5.75;;;4.18;;
44366;SDS011;30086;57.660;12.000;2024-02-26T05:37:34;14.18;;;4.80;;
44366;SDS011;30086;57.660;12.000;2024-02-26T05:40:00;10.40;;;5.00;;
44366;SDS011;30086;57.660;12.000;2024-02-26T05:42:29;8.98;;;5.50;;
44366;SDS011;30086;57.660;12.000;2024-02-26T05:44:55;7.10;;;4.38;;
44366;SDS011;30086;57.660;12.000;2024-02-26T05:47:21;7.70;;;4.65;;
44366;SDS011;30086;57.660;12.000;2024-02-26T05:49:47;8.35;;;4.97;;
44366;SDS011;30086;57.660;12.000;2024-02-26T05:52:13;9.07;;;4.95;;
44366;SDS011;30086;57.660;12.000;2024-02-26T05:54:40;5.97;;;4.75;;
44366;SDS011;30086;57.660;12.000;2024-02-26T05:57:06;7.57;;;4.55;;
44366;SDS011;30086;57.660;12.000;2024-02-26T05:59:32;7.35;;;5.40;;
44366;SDS011;30086;57.660;12.000;2024-02-26T06:01:58;11.00;;;5.63;;
44366;SDS011;30086;57.660;12.000;2024-02-26T06:04:24;8.27;;;5.15;;
44366;SDS011;30086;57.660;12.000;2024-02-26T06:06:50;11.25;;;5.20;;
44366;SDS011;30086;57.660;12.000;2024-02-26T06:09:17;9.85;;;4.82;;
44366;SDS011;30086;57.660;12.000;2024-02-26T06:11:43;9.18;;;4.97;;
44366;SDS011;30086;57.660;12.000;2024-02-26T06:14:09;10.27;;;5.07;;
44366;SDS011;30086;57.660;12.000;2024-02-26T06:16:36;10.93;;;5.90;;
44366;SDS011;30086;57.660;12.000;2024-02-26T06:19:02;7.50;;;4.95;;
44366;SDS011;30086;57.660;12.000;2024-02-26T06:21:28;7.93;;;5.03;;
44366;SDS011;30086;57.660;12.000;2024-02-26T06:23:54;15.98;;;5.93;;
44366;SDS011;30086;57.660;12.000;2024-02-26T06:26:20;10.30;;;4.97;;
44366;SDS011;30086;57.660;12.000;2024-02-26T06:28:47;9.23;;;4.80;;
44366;SDS011;30086;57.660;12.000;2024-02-26T06:31:13;5.75;;;4.57;;
44366;SDS011;30086;57.660;12.000;2024-02-26T06:33:39;7.25;;;4.85;;
44366;SDS011;30086;57.660;12.000;2024-02-26T06:36:05;8.60;;;5.70;;
44366;SDS011;30086;57.660;12.000;2024-02-26T06:38:31;9.57;;;5.03;;
44366;SDS011;30086;57.660;12.000;2024-02-26T06:40:57;9.50;;;5.03;;
44366;SDS011;30086;57.660;12.000;2024-02-26T06:43:23;7.65;;;5.07;;
44366;SDS011;30086;57.660;12.000;2024-02-26T06:45:49;8.23;;;4.85;;
44366;SDS011;30086;57.660;12.000;2024-02-26T06:48:15;8.88;;;4.90;;
44366;SDS011;30086;57.660;12.000;2024-02-26T06:50:41;10.75;;;6.55;;
44366;SDS011;30086;57.660;12.000;2024-02-26T06:53:08;10.10;;;5.50;;
44366;SDS011;30086;57.660;12.000;2024-02-26T06:55:34;9.65;;;5.35;;
44366;SDS011;30086;57.660;12.000;2024-02-26T06:58:00;9.80;;;5.38;;
44366;SDS011;30086;57.660;12.000;2024-02-26T07:00:26;8.48;;;5.72;;
44366;SDS011;30086;57.660;12.000;2024-02-26T07:02:52;9.40;;;5.20;;
44366;SDS011;30086;57.660;12.000;2024-02-26T07:05:18;10.52;;;5.78;;
44366;SDS011;30086;57.660;12.000;2024-02-26T07:07:44;9.63;;;5.72;;
44366;SDS011;30086;57.660;12.000;2024-02-26T07:10:10;9.60;;;5.65;;
44366;SDS011;30086;57.660;12.000;2024-02-26T07:12:37;9.10;;;5.10;;
44366;SDS011;30086;57.660;12.000;2024-02-26T07:15:03;7.72;;;5.70;;
44366;SDS011;30086;57.660;12.000;2024-02-26T07:17:32;9.40;;;6.15;;
44366;SDS011;30086;57.660;12.000;2024-02-26T07:19:59;12.15;;;5.57;;
44366;SDS011;30086;57.660;12.000;2024-02-26T07:22:25;13.98;;;5.50;;
44366;SDS011;30086;57.660;12.000;2024-02-26T07:24:51;9.55;;;5.47;;
44366;SDS011;30086;57.660;12.000;2024-02-26T07:27:20;8.55;;;4.75;;
44366;SDS011;30086;57.660;12.000;2024-02-26T07:29:46;9.10;;;5.78;;
44366;SDS011;30086;57.660;12.000;2024-02-26T07:32:13;9.82;;;5.70;;
44366;SDS011;30086;57.660;12.000;2024-02-26T07:34:39;7.93;;;5.32;;
44366;SDS011;30086;57.660;12.000;2024-02-26T07:37:10;9.93;;;5.88;;
44366;SDS011;30086;57.660;12.000;2024-02-26T07:39:36;8.57;;;5.90;;
44366;SDS011;30086;57.660;12.000;2024-02-26T07:42:02;8.68;;;5.63;;
44366;SDS011;30086;57.660;12.000;2024-02-26T07:44:29;9.75;;;5.22;;
44366;SDS011;30086;57.660;12.000;2024-02-26T07:46:55;8.32;;;5.60;;
44366;SDS011;30086;57.660;12.000;2024-02-26T07:49:21;7.95;;;5.00;;
44366;SDS011;30086;57.660;12.000;2024-02-26T07:51:47;8.68;;;5.45;;
44366;SDS011;30086;57.660;12.000;2024-02-26T07:54:13;8.35;;;4.55;;
44366;SDS011;30086;57.660;12.000;2024-02-26T07:56:41;11.20;;;5.35;;
44366;SDS011;30086;57.660;12.000;2024-02-26T07:59:07;5.78;;;4.70;;
44366;SDS011;30086;57.660;12.000;2024-02-26T08:01:34;7.93;;;5.00;;
44366;SDS011;30086;57.660;12.000;2024-02-26T08:04:03;11.90;;;4.53;;
44366;SDS011;30086;57.660;12.000;2024-02-26T08:06:30;7.00;;;4.40;;
44366;SDS011;30086;57.660;12.000;2024-02-26T08:08:56;8.63;;;5.03;;
44366;SDS011;30086;57.660;12.000;2024-02-26T08:11:22;7.43;;;4.28;;
44366;SDS011;30086;57.660;12.000;2024-02-26T08:13:48;7.05;;;4.53;;
44366;SDS011;30086;57.660;12.000;2024-02-26T08:16:14;7.70;;;4.82;;
44366;SDS011;30086;57.660;12.000;2024-02-26T08:18:40;12.77;;;5.18;;
44366;SDS011;30086;57.660;12.000;2024-02-26T08:21:06;6.35;;;4.93;;
44366;SDS011;30086;57.660;12.000;2024-02-26T08:23:33;7.25;;;5.60;;
44366;SDS011;30086;57.660;12.000;2024-02-26T08:25:59;10.20;;;4.95;;
44366;SDS011;30086;57.660;12.000;2024-02-26T08:28:28;6.32;;;4.43;;
44366;SDS011;30086;57.660;12.000;2024-02-26T08:30:54;7.63;;;4.22;;
44366;SDS011;30086;57.660;12.000;2024-02-26T08:33:20;6.65;;;4.45;;
44366;SDS011;30086;57.660;12.000;2024-02-26T08:35:46;7.97;;;4.70;;
44366;SDS011;30086;57.660;12.000;2024-02-26T08:38:12;12.13;;;5.07;;
44366;SDS011;30086;57.660;12.000;2024-02-26T08:40:39;7.28;;;4.95;;
44366;SDS011;30086;57.660;12.000;2024-02-26T08:43:05;9.27;;;5.13;;
44366;SDS011;30086;57.660;12.000;2024-02-26T08:45:31;10.40;;;5.05;;
44366;SDS011;30086;57.660;12.000;2024-02-26T08:47:57;8.15;;;5.40;;
44366;SDS011;30086;57.660;12.000;2024-02-26T08:50:24;9.48;;;6.05;;
44366;SDS011;30086;57.660;12.000;2024-02-26T08:52:50;6.43;;;4.95;;
44366;SDS011;30086;57.660;12.000;2024-02-26T08:55:18;7.10;;;5.05;;
44366;SDS011;30086;57.660;12.000;2024-02-26T08:57:44;6.68;;;5.45;;
44366;SDS011;30086;57.660;12.000;2024-02-26T09:00:10;10.00;;;5.30;;
44366;SDS011;30086;57.660;12.000;2024-02-26T09:02:38;7.90;;;5.65;;
44366;SDS011;30086;57.660;12.000;2024-02-26T09:05:05;8.50;;;5.78;;
44366;SDS011;30086;57.660;12.000;2024-02-26T09:07:31;7.50;;;5.43;;
44366;SDS011;30086;57.660;12.000;2024-02-26T09:09:58;9.75;;;5.63;;
44366;SDS011;30086;57.660;12.000;2024-02-26T09:12:24;10.02;;;5.57;;
44366;SDS011;30086;57.660;12.000;2024-02-26T09:14:54;7.53;;;5.63;;
44366;SDS011;30086;57.660;12.000;2024-02-26T09:17:21;10.40;;;6.75;;
44366;SDS011;30086;57.660;12.000;2024-02-26T09:19:47;7.15;;;5.28;;
44366;SDS011;30086;57.660;12.000;2024-02-26T09:22:14;9.23;;;6.15;;
44366;SDS011;30086;57.660;12.000;2024-02-26T09:24:40;10.98;;;6.03;;
44366;SDS011;30086;57.660;12.000;2024-02-26T09:27:06;10.65;;;6.35;;
44366;SDS011;30086;57.660;12.000;2024-02-26T09:29:35;10.35;;;5.68;;
44366;SDS011;30086;57.660;12.000;2024-02-26T09:32:01;9.00;;;5.53;;
44366;SDS011;30086;57.660;12.000;2024-02-26T09:34:27;12.30;;;6.22;;
44366;SDS011;30086;57.660;12.000;2024-02-26T09:36:53;11.15;;;6.40;;
44366;SDS011;30086;57.660;12.000;2024-02-26T09:39:19;9.60;;;5.95;;
44366;SDS011;30086;57.660;12.000;2024-02-26T09:41:47;8.95;;;6.00;;
44366;SDS011;30086;57.660;12.000;2024-02-26T09:44:18;10.85;;;5.63;;
44366;SDS011;30086;57.660;12.000;2024-02-26T09:46:46;12.25;;;6.57;;
44366;SDS011;30086;57.660;12.000;2024-02-26T09:49:14;9.63;;;6.13;;
44366;SDS011;30086;57.660;12.000;2024-02-26T09:51:41;10.80;;;6.00;;
44366;SDS011;30086;57.660;12.000;2024-02-26T09:54:09;11.15;;;5.57;;
44366;SDS011;30086;57.660;12.000;2024-02-26T09:56:39;7.40;;;4.43;;
44366;SDS011;30086;57.660;12.000;2024-02-26T09:59:10;8.32;;;4.80;;
44366;SDS011;30086;57.660;12.000;2024-02-26T10:01:36;9.38;;;4.65;;
44366;SDS011;30086;57.660;12.000;2024-02-26T10:04:04;7.80;;;4.68;;
44366;SDS011;30086;57.660;12.000;2024-02-26T10:06:30;7.30;;;4.75;;
44366;SDS011;30086;57.660;12.000;2024-02-26T10:08:56;8.85;;;4.88;;
44366;SDS011;30086;57.660;12.000;2024-02-26T10:11:23;7.35;;;4.43;;
44366;SDS011;30086;57.660;12.000;2024-02-26T10:13:49;6.40;;;3.90;;
44366;SDS011;30086;57.660;12.000;2024-02-26T10:16:16;5.38;;;4.25;;
44366;SDS011;30086;57.660;12.000;2024-02-26T10:18:48;6.18;;;3.67;;
44366;SDS011;30086;57.660;12.000;2024-02-26T10:21:20;8.75;;;3.97;;
44366;SDS011;30086;57.660;12.000;2024-02-26T10:23:50;9.35;;;4.13;;
44366;SDS011;30086;57.660;12.000;2024-02-26T10:26:16;5.97;;;4.03;;
44366;SDS011;30086;57.660;12.000;2024-02-26T10:28:43;5.35;;;3.88;;
44366;SDS011;30086;57.660;12.000;2024-02-26T10:31:10;8.65;;;4.38;;
44366;SDS011;30086;57.660;12.000;2024-02-26T10:33:36;5.35;;;3.85;;
44366;SDS011;30086;57.660;12.000;2024-02-26T10:36:03;6.28;;;4.30;;
44366;SDS011;30086;57.660;12.000;2024-02-26T10:38:30;8.55;;;4.45;;
44366;SDS011;30086;57.660;12.000;2024-02-26T10:40:56;6.82;;;3.97;;
44366;SDS011;30086;57.660;12.000;2024-02-26T10:43:22;10.80;;;4.43;;
44366;SDS011;30086;57.660;12.000;2024-02-26T10:45:48;7.05;;;4.03;;
44366;SDS011;30086;57.660;12.000;2024-02-26T10:48:14;6.10;;;3.80;;
44366;SDS011;30086;57.660;12.000;2024-02-26T10:50:41;6.13;;;3.63;;
44366;SDS011;30086;57.660;12.000;2024-02-26T10:53:11;9.65;;;4.13;;
44366;SDS011;30086;57.660;12.000;2024-02-26T10:55:40;5.20;;;3.42;;
44366;SDS011;30086;57.660;12.000;2024-02-26T10:58:06;6.38;;;3.13;;
44366;SDS011;30086;57.660;12.000;2024-02-26T11:00:34;3.80;;;3.15;;
44366;SDS011;30086;57.660;12.000;2024-02-26T11:03:01;3.42;;;2.70;;
44366;SDS011;30086;57.660;12.000;2024-02-26T11:05:28;4.07;;;2.90;;
44366;SDS011;30086;57.660;12.000;2024-02-26T11:07:54;2.70;;;2.42;;
44366;SDS011;30086;57.660;12.000;2024-02-26T11:10:21;3.33;;;2.75;;
44366;SDS011;30086;57.660;12.000;2024-02-26T11:12:47;2.13;;;1.67;;
44366;SDS011;30086;57.660;12.000;2024-02-26T11:15:15;4.22;;;2.35;;
44366;SDS011;30086;57.660;12.000;2024-02-26T11:17:42;1.50;;;0.93;;
44366;SDS011;30086;57.660;12.000;2024-02-26T11:20:09;3.83;;;2.63;;
44366;SDS011;30086;57.660;12.000;2024-02-26T11:22:37;2.63;;;1.98;;
44366;SDS011;30086;57.660;12.000;2024-02-26T11:25:03;4.72;;;2.67;;
44366;SDS011;30086;57.660;12.000;2024-02-26T11:27:31;5.88;;;2.35;;
44366;SDS011;30086;57.660;12.000;2024-02-26T11:29:58;3.22;;;2.47;;
44366;SDS011;30086;57.660;12.000;2024-02-26T11:32:26;3.28;;;1.88;;
44366;SDS011;30086;57.660;12.000;2024-02-26T11:34:59;3.92;;;2.47;;
44366;SDS011;30086;57.660;12.000;2024-02-26T11:37:25;2.35;;;1.77;;
44366;SDS011;30086;57.660;12.000;2024-02-26T11:39:52;3.97;;;2.53;;
44366;SDS011;30086;57.660;12.000;2024-02-26T11:42:22;3.25;;;1.85;;
44366;SDS011;30086;57.660;12.000;2024-02-26T11:44:49;3.90;;;1.65;;
44366;SDS011;30086;57.660;12.000;2024-02-26T11:47:20;2.83;;;2.17;;
44366;SDS011;30086;57.660;12.000;2024-02-26T11:49:46;4.68;;;1.83;;
44366;SDS011;30086;57.660;12.000;2024-02-26T11:52:13;4.75;;;2.33;;
44366;SDS011;30086;57.660;12.000;2024-02-26T11:59:50;7.55;;;3.17;;
44366;SDS011;30086;57.660;12.000;2024-02-26T12:05:01;3.80;;;3.00;;
44366;SDS011;30086;57.660;12.000;2024-02-26T12:07:27;5.10;;;2.67;;
44366;SDS011;30086;57.660;12.000;2024-02-26T12:09:56;3.00;;;2.00;;
44366;SDS011;30086;57.660;12.000;2024-02-26T12:12:38;1.85;;;1.73;;
44366;SDS011;30086;57.660;12.000;2024-02-26T12:15:05;5.47;;;1.92;;
44366;SDS011;30086;57.660;12.000;2024-02-26T12:17:31;3.95;;;2.67;;
44366;SDS011;30086;57.660;12.000;2024-02-26T12:20:11;3.65;;;2.75;;
44366;SDS011;30086;57.660;12.000;2024-02-26T12:22:41;3.65;;;3.00;;
44366;SDS011;30086;57.660;12.000;2024-02-26T12:25:09;3.17;;;2.72;;
44366;SDS011;30086;57.660;12.000;2024-02-26T12:27:35;4.75;;;3.13;;
44366;SDS011;30086;57.660;12.000;2024-02-26T12:30:02;4.80;;;2.40;;
44366;SDS011;30086;57.660;12.000;2024-02-26T12:32:28;4.63;;;3.00;;
44366;SDS011;30086;57.660;12.000;2024-02-26T12:34:55;4.88;;;3.00;;
44366;SDS011;30086;57.660;12.000;2024-02-26T12:37:22;4.30;;;2.92;;
44366;SDS011;30086;57.660;12.000;2024-02-26T12:39:48;5.60;;;3.22;;
44366;SDS011;30086;57.660;12.000;2024-02-26T12:42:15;5.10;;;2.20;;
44366;SDS011;30086;57.660;12.000;2024-02-26T12:44:41;4.47;;;3.10;;
44366;SDS011;30086;57.660;12.000;2024-02-26T12:47:07;2.65;;;1.63;;
44366;SDS011;30086;57.660;12.000;2024-02-26T12:49:35;7.95;;;3.45;;
44366;SDS011;30086;57.660;12.000;2024-02-26T12:52:01;4.00;;;2.83;;
44366;SDS011;30086;57.660;12.000;2024-02-26T12:54:29;4.68;;;2.47;;
44366;SDS011;30086;57.660;12.000;2024-02-26T12:56:56;3.47;;;2.60;;
44366;SDS011;30086;57.660;12.000;2024-02-26T12:59:22;11.82;;;2.85;;
44366;SDS011;30086;57.660;12.000;2024-02-26T13:01:48;6.85;;;2.92;;
44366;SDS011;30086;57.660;12.000;2024-02-26T13:04:14;7.00;;;2.70;;
44366;SDS011;30086;57.660;12.000;2024-02-26T13:06:41;10.63;;;3.13;;
44366;SDS011;30086;57.660;12.000;2024-02-26T13:09:08;12.07;;;3.78;;
44366;SDS011;30086;57.660;12.000;2024-02-26T13:11:35;9.32;;;3.38;;
44366;SDS011;30086;57.660;12.000;2024-02-26T13:14:02;5.25;;;3.60;;
44366;SDS011;30086;57.660;12.000;2024-02-26T13:16:28;9.27;;;3.38;;
44366;SDS011;30086;57.660;12.000;2024-02-26T13:18:54;4.32;;;3.15;;
44366;SDS011;30086;57.660;12.000;2024-02-26T13:21:20;5.03;;;3.85;;
44366;SDS011;30086;57.660;12.000;2024-02-26T13:23:52;7.40;;;3.67;;
44366;SDS011;30086;57.660;12.000;2024-02-26T13:26:21;9.43;;;3.30;;
44366;SDS011;30086;57.660;12.000;2024-02-26T13:28:58;7.20;;;3.20;;
44366;SDS011;30086;57.660;12.000;2024-02-26T13:31:24;4.93;;;2.92;;
44366;SDS011;30086;57.660;12.000;2024-02-26T13:33:52;5.00;;;3.08;;
44366;SDS011;30086;57.660;12.000;2024-02-26T13:36:21;5.47;;;2.90;;
44366;SDS011;30086;57.660;12.000;2024-02-26T13:38:53;1.70;;;1.42;;
44366;SDS011;30086;57.660;12.000;2024-02-26T13:41:20;4.60;;;3.00;;
44366;SDS011;30086;57.660;12.000;2024-02-26T13:43:47;4.93;;;3.58;;
44366;SDS011;30086;57.660;12.000;2024-02-26T13:46:14;7.03;;;3.80;;
44366;SDS011;30086;57.660;12.000;2024-02-26T13:49:04;5.75;;;3.60;;
44366;SDS011;30086;57.660;12.000;2024-02-26T13:51:30;7.82;;;3.60;;
44366;SDS011;30086;57.660;12.000;2024-02-26T13:54:01;8.23;;;3.70;;
44366;SDS011;30086;57.660;12.000;2024-02-26T13:56:27;6.82;;;3.70;;
44366;SDS011;30086;57.660;12.000;2024-02-26T13:58:53;6.47;;;3.63;;
44366;SDS011;30086;57.660;12.000;2024-02-26T14:01:19;5.55;;;4.15;;
44366;SDS011;30086;57.660;12.000;2024-02-26T14:03:45;5.82;;;4.57;;
44366;SDS011;30086;57.660;12.000;2024-02-26T14:06:12;6.15;;;3.78;;
44366;SDS011;30086;57.660;12.000;2024-02-26T14:08:38;5.72;;;4.53;;
44366;SDS011;30086;57.660;12.000;2024-02-26T14:11:04;4.78;;;3.90;;
44366;SDS011;30086;57.660;12.000;2024-02-26T14:13:30;4.65;;;3.58;;
44366;SDS011;30086;57.660;12.000;2024-02-26T14:15:56;6.45;;;4.30;;
44366;SDS011;30086;57.660;12.000;2024-02-26T14:18:22;4.78;;;3.50;;
44366;SDS011;30086;57.660;12.000;2024-02-26T14:20:49;7.60;;;3.80;;
44366;SDS011;30086;57.660;12.000;2024-02-26T14:23:15;11.43;;;5.70;;
44366;SDS011;30086;57.660;12.000;2024-02-26T14:25:41;6.78;;;3.60;;
44366;SDS011;30086;57.660;12.000;2024-02-26T14:28:07;4.70;;;3.65;;
44366;SDS011;30086;57.660;12.000;2024-02-26T14:30:34;9.05;;;4.43;;
44366;SDS011;30086;57.660;12.000;2024-02-26T14:33:00;12.32;;;4.55;;
44366;SDS011;30086;57.660;12.000;2024-02-26T14:35:26;5.65;;;3.55;;
44366;SDS011;30086;57.660;12.000;2024-02-26T14:37:52;5.30;;;3.63;;